sensor_id;sensor_type;location;lat;lon;timestamp;temperature;humidity
40023;DHT22;25713;-35.352;149.036;2022-10-18T00:01:43;14.20;97.30
40023;DHT22;25713;-35.352;149.036;2022-10-18T00:04:13;14.20;97.60
40023;DHT22;25713;-35.352;149.036;2022-10-18T00:06:42;14.20;97.80
40023;DHT22;25713;-35.352;149.036;2022-10-18T00:09:12;14.20;97.80
40023;DHT22;25713;-35.352;149.036;2022-10-18T00:11:41;14.20;98.50
40023;DHT22;25713;-35.352;149.036;2022-10-18T00:14:11;14.20;98.00
40023;DHT22;25713;-35.352;149.036;2022-10-18T00:16:42;14.30;97.50
40023;DHT22;25713;-35.352;149.036;2022-10-18T00:19:12;14.30;97.70
40023;DHT22;25713;-35.352;149.036;2022-10-18T00:21:41;14.30;98.00
40023;DHT22;25713;-35.352;149.036;2022-10-18T00:24:10;14.30;97.90
40023;DHT22;25713;-35.352;149.036;2022-10-18T00:26:39;14.40;97.90
40023;DHT22;25713;-35.352;149.036;2022-10-18T00:29:13;14.40;98.20
40023;DHT22;25713;-35.352;149.036;2022-10-18T00:31:45;14.40;97.80
40023;DHT22;25713;-35.352;149.036;2022-10-18T00:34:16;14.50;97.70
40023;DHT22;25713;-35.352;149.036;2022-10-18T00:36:45;14.50;97.50
40023;DHT22;25713;-35.352;149.036;2022-10-18T00:39:16;14.50;98.10
40023;DHT22;25713;-35.352;149.036;2022-10-18T00:41:47;14.50;97.70
40023;DHT22;25713;-35.352;149.036;2022-10-18T00:47:22;14.50;96.30
40023;DHT22;25713;-35.352;149.036;2022-10-18T00:49:54;14.50;97.50
40023;DHT22;25713;-35.352;149.036;2022-10-18T00:52:27;14.60;98.00
40023;DHT22;25713;-35.352;149.036;2022-10-18T00:54:58;14.50;97.70
40023;DHT22;25713;-35.352;149.036;2022-10-18T00:57:29;14.60;98.10
40023;DHT22;25713;-35.352;149.036;2022-10-18T00:59:58;14.60;98.10
40023;DHT22;25713;-35.352;149.036;2022-10-18T01:02:30;14.70;97.70
40023;DHT22;25713;-35.352;149.036;2022-10-18T01:04:59;14.70;97.10
40023;DHT22;25713;-35.352;149.036;2022-10-18T01:07:38;14.70;96.80
40023;DHT22;25713;-35.352;149.036;2022-10-18T01:10:21;14.80;97.30
40023;DHT22;25713;-35.352;149.036;2022-10-18T01:13:02;14.90;97.00
40023;DHT22;25713;-35.352;149.036;2022-10-18T01:15:38;15.00;96.50
40023;DHT22;25713;-35.352;149.036;2022-10-18T01:18:15;15.00;97.00
40023;DHT22;25713;-35.352;149.036;2022-10-18T01:24:12;15.00;96.80
40023;DHT22;25713;-35.352;149.036;2022-10-18T01:29:57;15.20;95.80
40023;DHT22;25713;-35.352;149.036;2022-10-18T01:32:37;15.20;95.90
40023;DHT22;25713;-35.352;149.036;2022-10-18T01:35:25;15.20;95.40
40023;DHT22;25713;-35.352;149.036;2022-10-18T01:37:56;15.20;95.70
40023;DHT22;25713;-35.352;149.036;2022-10-18T01:40:31;15.20;95.60
40023;DHT22;25713;-35.352;149.036;2022-10-18T01:43:02;15.20;96.30
40023;DHT22;25713;-35.352;149.036;2022-10-18T01:45:33;15.20;95.70
40023;DHT22;25713;-35.352;149.036;2022-10-18T01:48:04;15.20;95.50
40023;DHT22;25713;-35.352;149.036;2022-10-18T01:50:35;15.20;95.80
40023;DHT22;25713;-35.352;149.036;2022-10-18T01:53:04;15.10;96.10
40023;DHT22;25713;-35.352;149.036;2022-10-18T01:55:37;15.20;96.10
40023;DHT22;25713;-35.352;149.036;2022-10-18T01:58:15;15.20;96.00
40023;DHT22;25713;-35.352;149.036;2022-10-18T02:00:49;15.20;95.80
40023;DHT22;25713;-35.352;149.036;2022-10-18T02:03:24;15.20;96.00
40023;DHT22;25713;-35.352;149.036;2022-10-18T02:05:59;15.20;95.90
40023;DHT22;25713;-35.352;149.036;2022-10-18T02:08:36;15.20;96.10
40023;DHT22;25713;-35.352;149.036;2022-10-18T02:11:07;15.20;96.50
40023;DHT22;25713;-35.352;149.036;2022-10-18T02:13:39;15.20;96.00
40023;DHT22;25713;-35.352;149.036;2022-10-18T02:16:11;15.20;95.70
40023;DHT22;25713;-35.352;149.036;2022-10-18T02:18:48;15.20;96.30
40023;DHT22;25713;-35.352;149.036;2022-10-18T02:21:19;15.20;96.10
40023;DHT22;25713;-35.352;149.036;2022-10-18T02:23:49;15.20;96.40
40023;DHT22;25713;-35.352;149.036;2022-10-18T02:26:20;15.30;95.90
40023;DHT22;25713;-35.352;149.036;2022-10-18T02:28:50;15.30;95.10
40023;DHT22;25713;-35.352;149.036;2022-10-18T02:31:23;15.30;95.90
40023;DHT22;25713;-35.352;149.036;2022-10-18T02:33:57;15.30;95.00
40023;DHT22;25713;-35.352;149.036;2022-10-18T02:36:32;15.30;95.80
40023;DHT22;25713;-35.352;149.036;2022-10-18T02:39:06;15.40;95.10
40023;DHT22;25713;-35.352;149.036;2022-10-18T02:41:38;15.40;95.50
40023;DHT22;25713;-35.352;149.036;2022-10-18T02:44:08;15.30;95.10
40023;DHT22;25713;-35.352;149.036;2022-10-18T02:46:37;15.30;95.70
40023;DHT22;25713;-35.352;149.036;2022-10-18T02:49:10;15.40;95.10
40023;DHT22;25713;-35.352;149.036;2022-10-18T02:51:38;15.30;95.50
40023;DHT22;25713;-35.352;149.036;2022-10-18T02:54:08;15.40;93.70
40023;DHT22;25713;-35.352;149.036;2022-10-18T02:56:37;15.30;95.40
40023;DHT22;25713;-35.352;149.036;2022-10-18T02:59:06;15.30;96.00
40023;DHT22;25713;-35.352;149.036;2022-10-18T03:01:36;15.40;96.20
40023;DHT22;25713;-35.352;149.036;2022-10-18T03:04:08;15.30;96.20
40023;DHT22;25713;-35.352;149.036;2022-10-18T03:06:37;15.40;95.00
40023;DHT22;25713;-35.352;149.036;2022-10-18T03:09:07;15.40;95.80
40023;DHT22;25713;-35.352;149.036;2022-10-18T03:11:36;15.40;95.80
40023;DHT22;25713;-35.352;149.036;2022-10-18T03:14:06;15.50;94.60
40023;DHT22;25713;-35.352;149.036;2022-10-18T03:16:37;15.50;94.40
40023;DHT22;25713;-35.352;149.036;2022-10-18T03:19:08;15.50;94.80
40023;DHT22;25713;-35.352;149.036;2022-10-18T03:21:37;15.50;95.80
40023;DHT22;25713;-35.352;149.036;2022-10-18T03:24:07;15.50;95.80
40023;DHT22;25713;-35.352;149.036;2022-10-18T03:26:36;15.50;95.30
40023;DHT22;25713;-35.352;149.036;2022-10-18T03:29:06;15.50;95.00
40023;DHT22;25713;-35.352;149.036;2022-10-18T03:31:35;15.50;94.40
40023;DHT22;25713;-35.352;149.036;2022-10-18T03:34:04;15.50;93.60
40023;DHT22;25713;-35.352;149.036;2022-10-18T03:36:36;15.50;94.40
40023;DHT22;25713;-35.352;149.036;2022-10-18T03:39:05;15.50;93.50
40023;DHT22;25713;-35.352;149.036;2022-10-18T03:41:35;15.50;93.20
40023;DHT22;25713;-35.352;149.036;2022-10-18T03:44:04;15.60;92.60
40023;DHT22;25713;-35.352;149.036;2022-10-18T03:46:34;15.50;94.40
40023;DHT22;25713;-35.352;149.036;2022-10-18T03:49:03;15.50;94.60
40023;DHT22;25713;-35.352;149.036;2022-10-18T03:51:34;15.50;94.40
40023;DHT22;25713;-35.352;149.036;2022-10-18T03:54:04;15.50;94.90
40023;DHT22;25713;-35.352;149.036;2022-10-18T03:56:33;15.50;93.80
40023;DHT22;25713;-35.352;149.036;2022-10-18T03:59:03;15.50;94.50
40023;DHT22;25713;-35.352;149.036;2022-10-18T04:01:32;15.50;94.60
40023;DHT22;25713;-35.352;149.036;2022-10-18T04:04:02;15.60;94.80
40023;DHT22;25713;-35.352;149.036;2022-10-18T04:06:31;15.60;94.70
40023;DHT22;25713;-35.352;149.036;2022-10-18T04:09:03;15.60;93.80
40023;DHT22;25713;-35.352;149.036;2022-10-18T04:11:31;15.70;93.90
40023;DHT22;25713;-35.352;149.036;2022-10-18T04:14:01;15.70;94.00
40023;DHT22;25713;-35.352;149.036;2022-10-18T04:16:30;15.60;95.10
40023;DHT22;25713;-35.352;149.036;2022-10-18T04:18:59;15.60;95.70
40023;DHT22;25713;-35.352;149.036;2022-10-18T04:21:29;15.60;95.50
40023;DHT22;25713;-35.352;149.036;2022-10-18T04:24:00;15.60;95.30
40023;DHT22;25713;-35.352;149.036;2022-10-18T04:26:30;15.70;94.20
40023;DHT22;25713;-35.352;149.036;2022-10-18T04:28:59;15.70;93.40
40023;DHT22;25713;-35.352;149.036;2022-10-18T04:31:28;15.70;93.80
40023;DHT22;25713;-35.352;149.036;2022-10-18T04:33:58;15.70;94.90
40023;DHT22;25713;-35.352;149.036;2022-10-18T04:36:27;15.60;95.40
40023;DHT22;25713;-35.352;149.036;2022-10-18T04:38:56;15.60;95.20
40023;DHT22;25713;-35.352;149.036;2022-10-18T04:41:28;15.60;94.90
40023;DHT22;25713;-35.352;149.036;2022-10-18T04:43:57;15.60;95.20
40023;DHT22;25713;-35.352;149.036;2022-10-18T04:46:27;15.60;95.30
40023;DHT22;25713;-35.352;149.036;2022-10-18T04:48:57;15.60;94.70
40023;DHT22;25713;-35.352;149.036;2022-10-18T04:51:26;15.70;95.00
40023;DHT22;25713;-35.352;149.036;2022-10-18T04:53:56;15.70;95.70
40023;DHT22;25713;-35.352;149.036;2022-10-18T04:56:27;15.70;95.30
40023;DHT22;25713;-35.352;149.036;2022-10-18T04:58:57;15.60;95.00
40023;DHT22;25713;-35.352;149.036;2022-10-18T05:01:26;15.70;95.20
40023;DHT22;25713;-35.352;149.036;2022-10-18T05:03:56;15.70;95.40
40023;DHT22;25713;-35.352;149.036;2022-10-18T05:06:25;15.70;95.40
40023;DHT22;25713;-35.352;149.036;2022-10-18T05:08:54;15.60;95.30
40023;DHT22;25713;-35.352;149.036;2022-10-18T05:11:24;15.70;93.60
40023;DHT22;25713;-35.352;149.036;2022-10-18T05:13:55;15.70;94.30
40023;DHT22;25713;-35.352;149.036;2022-10-18T05:16:25;15.70;94.20
40023;DHT22;25713;-35.352;149.036;2022-10-18T05:18:54;15.70;93.90
40023;DHT22;25713;-35.352;149.036;2022-10-18T05:21:23;15.70;93.20
40023;DHT22;25713;-35.352;149.036;2022-10-18T05:23:55;15.80;92.50
40023;DHT22;25713;-35.352;149.036;2022-10-18T05:26:25;15.80;92.20
40023;DHT22;25713;-35.352;149.036;2022-10-18T05:28:56;15.80;92.10
40023;DHT22;25713;-35.352;149.036;2022-10-18T05:31:25;15.90;92.10
40023;DHT22;25713;-35.352;149.036;2022-10-18T05:33:54;15.90;92.60
40023;DHT22;25713;-35.352;149.036;2022-10-18T05:36:24;15.90;93.00
40023;DHT22;25713;-35.352;149.036;2022-10-18T05:38:54;15.80;94.20
40023;DHT22;25713;-35.352;149.036;2022-10-18T05:41:23;15.90;93.90
40023;DHT22;25713;-35.352;149.036;2022-10-18T05:43:54;16.00;93.70
40023;DHT22;25713;-35.352;149.036;2022-10-18T05:46:24;15.90;94.40
40023;DHT22;25713;-35.352;149.036;2022-10-18T05:48:53;15.90;94.10
40023;DHT22;25713;-35.352;149.036;2022-10-18T05:51:22;15.90;93.70
40023;DHT22;25713;-35.352;149.036;2022-10-18T05:53:52;15.90;93.40
40023;DHT22;25713;-35.352;149.036;2022-10-18T05:56:21;15.90;93.50
40023;DHT22;25713;-35.352;149.036;2022-10-18T05:58:51;15.80;93.60
40023;DHT22;25713;-35.352;149.036;2022-10-18T06:01:22;15.80;94.30
40023;DHT22;25713;-35.352;149.036;2022-10-18T06:03:52;15.80;93.60
40023;DHT22;25713;-35.352;149.036;2022-10-18T06:06:21;16.00;91.90
40023;DHT22;25713;-35.352;149.036;2022-10-18T06:08:50;16.00;92.30
40023;DHT22;25713;-35.352;149.036;2022-10-18T06:11:20;16.00;93.00
40023;DHT22;25713;-35.352;149.036;2022-10-18T06:13:50;16.00;93.20
40023;DHT22;25713;-35.352;149.036;2022-10-18T06:16:22;16.00;92.00
40023;DHT22;25713;-35.352;149.036;2022-10-18T06:18:53;16.00;91.70
40023;DHT22;25713;-35.352;149.036;2022-10-18T06:21:24;16.00;92.50
40023;DHT22;25713;-35.352;149.036;2022-10-18T06:23:54;16.00;92.00
40023;DHT22;25713;-35.352;149.036;2022-10-18T06:26:25;16.00;92.00
40023;DHT22;25713;-35.352;149.036;2022-10-18T06:28:55;16.10;92.20
40023;DHT22;25713;-35.352;149.036;2022-10-18T06:31:26;16.00;92.70
40023;DHT22;25713;-35.352;149.036;2022-10-18T06:33:57;15.90;93.90
40023;DHT22;25713;-35.352;149.036;2022-10-18T06:36:26;15.90;93.80
40023;DHT22;25713;-35.352;149.036;2022-10-18T06:38:55;15.90;93.80
40023;DHT22;25713;-35.352;149.036;2022-10-18T06:41:25;16.00;93.20
40023;DHT22;25713;-35.352;149.036;2022-10-18T06:43:54;15.90;93.40
40023;DHT22;25713;-35.352;149.036;2022-10-18T06:46:26;15.90;93.90
40023;DHT22;25713;-35.352;149.036;2022-10-18T06:48:55;15.90;94.10
40023;DHT22;25713;-35.352;149.036;2022-10-18T06:51:24;15.80;94.70
40023;DHT22;25713;-35.352;149.036;2022-10-18T06:53:53;15.80;95.40
40023;DHT22;25713;-35.352;149.036;2022-10-18T06:56:23;15.80;94.80
40023;DHT22;25713;-35.352;149.036;2022-10-18T06:58:52;15.80;93.40
40023;DHT22;25713;-35.352;149.036;2022-10-18T07:01:22;15.80;93.80
40023;DHT22;25713;-35.352;149.036;2022-10-18T07:03:53;15.90;93.40
40023;DHT22;25713;-35.352;149.036;2022-10-18T07:06:23;15.90;93.30
40023;DHT22;25713;-35.352;149.036;2022-10-18T07:08:53;15.90;93.50
40023;DHT22;25713;-35.352;149.036;2022-10-18T07:11:24;15.90;93.80
40023;DHT22;25713;-35.352;149.036;2022-10-18T07:13:54;15.90;94.30
40023;DHT22;25713;-35.352;149.036;2022-10-18T07:16:26;15.90;94.20
40023;DHT22;25713;-35.352;149.036;2022-10-18T07:18:58;15.90;94.70
40023;DHT22;25713;-35.352;149.036;2022-10-18T07:21:27;15.90;94.00
40023;DHT22;25713;-35.352;149.036;2022-10-18T07:23:57;16.00;93.80
40023;DHT22;25713;-35.352;149.036;2022-10-18T07:26:27;15.90;94.00
40023;DHT22;25713;-35.352;149.036;2022-10-18T07:28:58;15.90;94.70
40023;DHT22;25713;-35.352;149.036;2022-10-18T07:31:28;15.80;95.10
40023;DHT22;25713;-35.352;149.036;2022-10-18T07:34:02;15.90;94.80
40023;DHT22;25713;-35.352;149.036;2022-10-18T07:36:32;15.90;94.80
40023;DHT22;25713;-35.352;149.036;2022-10-18T07:39:01;15.90;94.90
40023;DHT22;25713;-35.352;149.036;2022-10-18T07:41:31;15.90;94.40
40023;DHT22;25713;-35.352;149.036;2022-10-18T07:44:01;15.90;94.70
40023;DHT22;25713;-35.352;149.036;2022-10-18T07:46:30;15.90;94.10
40023;DHT22;25713;-35.352;149.036;2022-10-18T07:49:02;15.80;93.90
40023;DHT22;25713;-35.352;149.036;2022-10-18T07:51:31;15.80;94.30
40023;DHT22;25713;-35.352;149.036;2022-10-18T07:54:01;15.80;94.80
40023;DHT22;25713;-35.352;149.036;2022-10-18T07:56:30;15.80;94.80
40023;DHT22;25713;-35.352;149.036;2022-10-18T07:58:59;15.80;94.30
40023;DHT22;25713;-35.352;149.036;2022-10-18T08:01:29;15.80;93.90
40023;DHT22;25713;-35.352;149.036;2022-10-18T08:03:58;15.80;94.10
40023;DHT22;25713;-35.352;149.036;2022-10-18T08:06:30;15.80;94.30
40023;DHT22;25713;-35.352;149.036;2022-10-18T08:09:00;15.80;95.10
40023;DHT22;25713;-35.352;149.036;2022-10-18T08:11:29;15.70;95.50
40023;DHT22;25713;-35.352;149.036;2022-10-18T08:13:58;15.70;95.70
40023;DHT22;25713;-35.352;149.036;2022-10-18T08:16:29;15.70;96.00
40023;DHT22;25713;-35.352;149.036;2022-10-18T08:18:58;15.70;96.20
40023;DHT22;25713;-35.352;149.036;2022-10-18T08:21:30;15.70;96.30
40023;DHT22;25713;-35.352;149.036;2022-10-18T08:23:59;15.60;96.60
40023;DHT22;25713;-35.352;149.036;2022-10-18T08:26:29;15.60;96.80
40023;DHT22;25713;-35.352;149.036;2022-10-18T08:28:58;15.60;96.60
40023;DHT22;25713;-35.352;149.036;2022-10-18T08:31:27;15.60;96.70
40023;DHT22;25713;-35.352;149.036;2022-10-18T08:33:57;15.60;97.00
40023;DHT22;25713;-35.352;149.036;2022-10-18T08:36:26;15.60;97.50
40023;DHT22;25713;-35.352;149.036;2022-10-18T08:38:57;15.50;97.50
40023;DHT22;25713;-35.352;149.036;2022-10-18T08:42:00;15.60;97.90
40023;DHT22;25713;-35.352;149.036;2022-10-18T08:44:41;15.50;97.70
40023;DHT22;25713;-35.352;149.036;2022-10-18T08:47:14;15.50;97.70
40023;DHT22;25713;-35.352;149.036;2022-10-18T08:49:48;15.50;97.80
40023;DHT22;25713;-35.352;149.036;2022-10-18T08:52:29;15.50;97.60
40023;DHT22;25713;-35.352;149.036;2022-10-18T08:55:03;15.50;97.90
40023;DHT22;25713;-35.352;149.036;2022-10-18T08:57:32;15.50;97.90
40023;DHT22;25713;-35.352;149.036;2022-10-18T09:00:04;15.50;98.10
40023;DHT22;25713;-35.352;149.036;2022-10-18T09:02:48;15.50;98.00
40023;DHT22;25713;-35.352;149.036;2022-10-18T09:05:24;15.50;97.90
40023;DHT22;25713;-35.352;149.036;2022-10-18T09:08:12;15.50;98.00
40023;DHT22;25713;-35.352;149.036;2022-10-18T09:10:55;15.50;98.10
40023;DHT22;25713;-35.352;149.036;2022-10-18T09:13:54;15.50;98.00
40023;DHT22;25713;-35.352;149.036;2022-10-18T09:16:30;15.50;98.10
40023;DHT22;25713;-35.352;149.036;2022-10-18T09:19:08;15.50;98.30
40023;DHT22;25713;-35.352;149.036;2022-10-18T09:21:50;15.50;98.50
40023;DHT22;25713;-35.352;149.036;2022-10-18T09:24:26;15.50;98.60
40023;DHT22;25713;-35.352;149.036;2022-10-18T09:27:11;15.50;98.50
40023;DHT22;25713;-35.352;149.036;2022-10-18T09:29:54;15.50;98.60
40023;DHT22;25713;-35.352;149.036;2022-10-18T09:32:33;15.50;98.60
40023;DHT22;25713;-35.352;149.036;2022-10-18T09:35:15;15.50;98.50
40023;DHT22;25713;-35.352;149.036;2022-10-18T09:37:46;15.50;98.60
40023;DHT22;25713;-35.352;149.036;2022-10-18T09:40:17;15.50;98.70
40023;DHT22;25713;-35.352;149.036;2022-10-18T09:42:56;15.50;98.80
40023;DHT22;25713;-35.352;149.036;2022-10-18T09:45:29;15.50;98.90
40023;DHT22;25713;-35.352;149.036;2022-10-18T09:48:06;15.50;98.90
40023;DHT22;25713;-35.352;149.036;2022-10-18T09:50:42;15.50;98.90
40023;DHT22;25713;-35.352;149.036;2022-10-18T09:53:18;15.50;98.80
40023;DHT22;25713;-35.352;149.036;2022-10-18T09:56:00;15.40;98.80
40023;DHT22;25713;-35.352;149.036;2022-10-18T09:58:40;15.50;98.70
40023;DHT22;25713;-35.352;149.036;2022-10-18T10:01:10;15.50;98.70
40023;DHT22;25713;-35.352;149.036;2022-10-18T10:03:41;15.40;98.80
40023;DHT22;25713;-35.352;149.036;2022-10-18T10:06:27;15.40;99.00
40023;DHT22;25713;-35.352;149.036;2022-10-18T10:09:00;15.40;99.20
40023;DHT22;25713;-35.352;149.036;2022-10-18T10:11:32;15.40;99.40
40023;DHT22;25713;-35.352;149.036;2022-10-18T10:14:13;15.40;99.50
40023;DHT22;25713;-35.352;149.036;2022-10-18T10:16:50;15.40;99.50
40023;DHT22;25713;-35.352;149.036;2022-10-18T10:19:22;15.40;99.60
40023;DHT22;25713;-35.352;149.036;2022-10-18T10:21:58;15.40;99.60
40023;DHT22;25713;-35.352;149.036;2022-10-18T10:24:47;15.40;99.60
40023;DHT22;25713;-35.352;149.036;2022-10-18T10:27:23;15.40;99.70
40023;DHT22;25713;-35.352;149.036;2022-10-18T10:29:59;15.30;99.70
40023;DHT22;25713;-35.352;149.036;2022-10-18T10:32:42;15.30;99.70
40023;DHT22;25713;-35.352;149.036;2022-10-18T10:35:22;15.40;99.80
40023;DHT22;25713;-35.352;149.036;2022-10-18T10:37:52;15.40;99.80
40023;DHT22;25713;-35.352;149.036;2022-10-18T10:40:23;15.40;99.80
40023;DHT22;25713;-35.352;149.036;2022-10-18T10:43:02;15.40;99.90
40023;DHT22;25713;-35.352;149.036;2022-10-18T10:45:36;15.30;99.90
40023;DHT22;25713;-35.352;149.036;2022-10-18T10:48:12;15.30;99.90
40023;DHT22;25713;-35.352;149.036;2022-10-18T10:50:54;15.40;99.90
40023;DHT22;25713;-35.352;149.036;2022-10-18T10:56:22;15.30;99.90
40023;DHT22;25713;-35.352;149.036;2022-10-18T10:58:52;15.30;99.90
40023;DHT22;25713;-35.352;149.036;2022-10-18T11:01:29;15.30;99.90
40023;DHT22;25713;-35.352;149.036;2022-10-18T11:04:01;15.30;99.90
40023;DHT22;25713;-35.352;149.036;2022-10-18T11:09:32;15.20;99.90
40023;DHT22;25713;-35.352;149.036;2022-10-18T11:12:17;15.30;99.90
40023;DHT22;25713;-35.352;149.036;2022-10-18T11:14:53;15.20;99.90
40023;DHT22;25713;-35.352;149.036;2022-10-18T11:17:31;15.30;99.90
40023;DHT22;25713;-35.352;149.036;2022-10-18T11:20:23;15.20;99.90
40023;DHT22;25713;-35.352;149.036;2022-10-18T11:23:02;15.20;99.90
40023;DHT22;25713;-35.352;149.036;2022-10-18T11:25:46;15.30;99.90
40023;DHT22;25713;-35.352;149.036;2022-10-18T11:28:23;15.20;99.90
40023;DHT22;25713;-35.352;149.036;2022-10-18T11:31:03;15.20;99.90
40023;DHT22;25713;-35.352;149.036;2022-10-18T11:33:44;15.20;99.90
40023;DHT22;25713;-35.352;149.036;2022-10-18T11:36:19;15.20;99.90
40023;DHT22;25713;-35.352;149.036;2022-10-18T11:38:56;15.20;99.90
40023;DHT22;25713;-35.352;149.036;2022-10-18T11:41:33;15.20;99.90
40023;DHT22;25713;-35.352;149.036;2022-10-18T11:44:07;15.20;99.90
40023;DHT22;25713;-35.352;149.036;2022-10-18T11:46:50;15.20;99.90
40023;DHT22;25713;-35.352;149.036;2022-10-18T11:49:40;15.20;99.90
40023;DHT22;25713;-35.352;149.036;2022-10-18T11:52:18;15.20;99.90
40023;DHT22;25713;-35.352;149.036;2022-10-18T11:57:56;15.20;99.90
40023;DHT22;25713;-35.352;149.036;2022-10-18T12:00:45;15.20;99.90
40023;DHT22;25713;-35.352;149.036;2022-10-18T12:03:32;15.20;99.90
40023;DHT22;25713;-35.352;149.036;2022-10-18T12:06:12;15.20;99.90
40023;DHT22;25713;-35.352;149.036;2022-10-18T12:08:45;15.20;99.90
40023;DHT22;25713;-35.352;149.036;2022-10-18T12:11:16;15.20;99.90
40023;DHT22;25713;-35.352;149.036;2022-10-18T12:13:50;15.20;99.90
40023;DHT22;25713;-35.352;149.036;2022-10-18T12:16:22;15.20;99.90
40023;DHT22;25713;-35.352;149.036;2022-10-18T12:18:53;15.20;99.90
40023;DHT22;25713;-35.352;149.036;2022-10-18T12:21:27;15.20;99.90
40023;DHT22;25713;-35.352;149.036;2022-10-18T12:24:00;15.10;99.90
40023;DHT22;25713;-35.352;149.036;2022-10-18T12:26:32;15.10;99.90
40023;DHT22;25713;-35.352;149.036;2022-10-18T12:29:10;15.20;99.90
40023;DHT22;25713;-35.352;149.036;2022-10-18T12:31:44;15.20;99.90
40023;DHT22;25713;-35.352;149.036;2022-10-18T12:34:25;15.20;99.90
40023;DHT22;25713;-35.352;149.036;2022-10-18T12:37:11;15.20;99.90
40023;DHT22;25713;-35.352;149.036;2022-10-18T12:39:46;15.10;99.90
40023;DHT22;25713;-35.352;149.036;2022-10-18T12:42:22;15.10;99.90
40023;DHT22;25713;-35.352;149.036;2022-10-18T12:45:01;15.10;99.90
40023;DHT22;25713;-35.352;149.036;2022-10-18T12:47:32;15.10;99.90
40023;DHT22;25713;-35.352;149.036;2022-10-18T12:50:03;15.10;99.90
40023;DHT22;25713;-35.352;149.036;2022-10-18T12:52:36;15.10;99.90
40023;DHT22;25713;-35.352;149.036;2022-10-18T12:55:33;15.10;99.90
40023;DHT22;25713;-35.352;149.036;2022-10-18T12:58:20;15.10;99.90
40023;DHT22;25713;-35.352;149.036;2022-10-18T13:01:03;15.10;99.90
40023;DHT22;25713;-35.352;149.036;2022-10-18T13:03:51;15.10;99.90
40023;DHT22;25713;-35.352;149.036;2022-10-18T13:06:21;15.10;99.90
40023;DHT22;25713;-35.352;149.036;2022-10-18T13:09:20;15.10;99.90
40023;DHT22;25713;-35.352;149.036;2022-10-18T13:11:50;15.10;99.90
40023;DHT22;25713;-35.352;149.036;2022-10-18T13:17:22;15.10;99.90
40023;DHT22;25713;-35.352;149.036;2022-10-18T13:20:01;15.10;99.90
40023;DHT22;25713;-35.352;149.036;2022-10-18T13:22:52;15.10;99.90
40023;DHT22;25713;-35.352;149.036;2022-10-18T13:25:30;15.10;99.90
40023;DHT22;25713;-35.352;149.036;2022-10-18T13:28:15;15.10;99.90
40023;DHT22;25713;-35.352;149.036;2022-10-18T13:30:51;15.10;99.90
40023;DHT22;25713;-35.352;149.036;2022-10-18T13:33:30;15.10;99.90
40023;DHT22;25713;-35.352;149.036;2022-10-18T13:36:03;15.10;99.90
40023;DHT22;25713;-35.352;149.036;2022-10-18T13:38:44;15.10;99.90
40023;DHT22;25713;-35.352;149.036;2022-10-18T13:41:19;15.10;99.90
40023;DHT22;25713;-35.352;149.036;2022-10-18T13:44:08;15.10;99.90
40023;DHT22;25713;-35.352;149.036;2022-10-18T13:50:09;15.10;99.90
40023;DHT22;25713;-35.352;149.036;2022-10-18T13:53:02;15.10;99.90
40023;DHT22;25713;-35.352;149.036;2022-10-18T13:55:46;15.00;99.90
40023;DHT22;25713;-35.352;149.036;2022-10-18T13:58:26;15.00;99.90
40023;DHT22;25713;-35.352;149.036;2022-10-18T14:01:06;15.00;99.90
40023;DHT22;25713;-35.352;149.036;2022-10-18T14:03:59;15.00;99.90
40023;DHT22;25713;-35.352;149.036;2022-10-18T14:06:35;15.00;99.90
40023;DHT22;25713;-35.352;149.036;2022-10-18T14:09:11;15.00;99.90
40023;DHT22;25713;-35.352;149.036;2022-10-18T14:11:45;15.00;99.90
40023;DHT22;25713;-35.352;149.036;2022-10-18T14:14:20;15.00;99.90
40023;DHT22;25713;-35.352;149.036;2022-10-18T14:16:57;15.00;99.90
40023;DHT22;25713;-35.352;149.036;2022-10-18T14:19:32;15.00;99.90
40023;DHT22;25713;-35.352;149.036;2022-10-18T14:22:10;15.00;99.90
40023;DHT22;25713;-35.352;149.036;2022-10-18T14:24:44;15.00;99.90
40023;DHT22;25713;-35.352;149.036;2022-10-18T14:27:18;15.00;99.90
40023;DHT22;25713;-35.352;149.036;2022-10-18T14:30:05;15.00;99.90
40023;DHT22;25713;-35.352;149.036;2022-10-18T14:32:35;15.00;99.90
40023;DHT22;25713;-35.352;149.036;2022-10-18T14:35:05;15.00;99.90
40023;DHT22;25713;-35.352;149.036;2022-10-18T14:37:44;15.00;99.90
40023;DHT22;25713;-35.352;149.036;2022-10-18T14:40:27;15.00;99.90
40023;DHT22;25713;-35.352;149.036;2022-10-18T14:42:55;15.00;99.90
40023;DHT22;25713;-35.352;149.036;2022-10-18T14:45:31;15.00;99.90
40023;DHT22;25713;-35.352;149.036;2022-10-18T14:48:12;15.00;99.90
40023;DHT22;25713;-35.352;149.036;2022-10-18T14:50:42;14.90;99.90
40023;DHT22;25713;-35.352;149.036;2022-10-18T15:54:29;14.50;99.90
40023;DHT22;25713;-35.352;149.036;2022-10-18T15:56:59;14.60;99.90
40023;DHT22;25713;-35.352;149.036;2022-10-18T15:59:34;14.60;99.90
40023;DHT22;25713;-35.352;149.036;2022-10-18T16:02:10;14.60;99.90
40023;DHT22;25713;-35.352;149.036;2022-10-18T16:04:40;14.60;99.90
40023;DHT22;25713;-35.352;149.036;2022-10-18T16:07:10;14.60;99.90
40023;DHT22;25713;-35.352;149.036;2022-10-18T16:09:42;14.70;99.90
40023;DHT22;25713;-35.352;149.036;2022-10-18T16:12:12;14.70;99.90
40023;DHT22;25713;-35.352;149.036;2022-10-18T16:14:41;14.70;99.90
40023;DHT22;25713;-35.352;149.036;2022-10-18T16:17:11;14.70;99.90
40023;DHT22;25713;-35.352;149.036;2022-10-18T16:19:40;14.70;99.90
40023;DHT22;25713;-35.352;149.036;2022-10-18T16:22:11;14.70;99.90
40023;DHT22;25713;-35.352;149.036;2022-10-18T16:24:42;14.70;99.90
40023;DHT22;25713;-35.352;149.036;2022-10-18T16:27:11;14.80;99.90
40023;DHT22;25713;-35.352;149.036;2022-10-18T16:29:41;14.80;99.90
40023;DHT22;25713;-35.352;149.036;2022-10-18T16:32:10;14.80;99.90
40023;DHT22;25713;-35.352;149.036;2022-10-18T16:34:40;14.80;99.90
40023;DHT22;25713;-35.352;149.036;2022-10-18T16:37:09;14.80;99.90
40023;DHT22;25713;-35.352;149.036;2022-10-18T16:39:40;14.80;99.90
40023;DHT22;25713;-35.352;149.036;2022-10-18T16:42:10;14.80;99.90
40023;DHT22;25713;-35.352;149.036;2022-10-18T16:44:39;14.80;99.90
40023;DHT22;25713;-35.352;149.036;2022-10-18T16:47:10;14.80;99.90
40023;DHT22;25713;-35.352;149.036;2022-10-18T16:49:39;14.80;99.90
40023;DHT22;25713;-35.352;149.036;2022-10-18T16:52:08;14.80;99.90